Hc Svea Kim — V2BB — position and weather

sailwx.info

Track history (hours):
 
Tides and Currents Weather Stations Pressure Air Temp Water Temp Dewpoint Dewpoint Depression Visibility Wind Speed Wind Dir Waves Ship Positions

Hc Svea Kim

Last reported at 2017-Aug-19 07:30 UTC. Time now 2017-Aug-19 07:27 UTC.
Position N 55°14' E 014°17'.

Length 129 m; draft 6.7 m.

Type: Cargo ship. MMSI: 304182000.

Date/timePositionNaut miles runAvg speedWind from/ knotsBaromVisibWave heightAir tempDewpointWater temp
2017-Aug-19 07:30N 55°14' E 014°17'510.0
2017-Aug-19 07:00N 55°18' E 014°23'510.3
2017-Aug-19 06:30N 55°22' E 014°29'510.7
2017-Aug-19 06:00N 55°26' E 014°35'611.1
2017-Aug-19 05:30N 55°29' E 014°44'510.9
2017-Aug-19 05:00N 55°31' E 014°52'510.8
2017-Aug-19 04:30N 55°34' E 015°00'611.0
2017-Aug-19 04:00N 55°37' E 015°09'510.9
2017-Aug-19 03:30N 55°40' E 015°17'510.8
2017-Aug-19 03:00N 55°42' E 015°25'510.7
2017-Aug-19 02:30N 55°45' E 015°34'510.6
2017-Aug-19 02:00N 55°47' E 015°42'510.6
2017-Aug-19 01:30N 55°50' E 015°50'510.5
2017-Aug-19 01:00N 55°53' E 015°58'611.2
2017-Aug-19 00:30N 55°56' E 016°06'611.4
2017-Aug-19 00:00N 55°59' E 016°15'611.5
2017-Aug-18 23:30N 56°02' E 016°24'611.5
2017-Aug-18 23:00N 56°05' E 016°32'611.3
2017-Aug-18 22:30N 56°08' E 016°41'510.9
2017-Aug-18 22:00N 56°13' E 016°46'611.5
2017-Aug-18 21:30N 56°18' E 016°51'611.3
2017-Aug-18 21:00N 56°23' E 016°56'611.5
2017-Aug-18 20:29N 56°28' E 016°60'711.4
2017-Aug-18 19:51N 56°35' E 017°05'511.5
2017-Aug-18 19:25N 56°40' E 017°08'611.4
2017-Aug-18 18:52N 56°46' E 017°11'13811.3
2017-Aug-18 06:40N 58°48' E 019°09'211.3
2017-Aug-18 06:30N 58°50' E 019°10'611.3
2017-Aug-18 06:00N 58°55' E 019°16'611.3
2017-Aug-18 05:30N 58°60' E 019°21'611.3
2017-Aug-18 05:00N 59°05' E 019°27'611.1
2017-Aug-18 04:28N 59°10' E 019°33'511.1
2017-Aug-18 04:00N 59°14' E 019°38'611.2
2017-Aug-18 03:30N 59°19' E 019°43'611.4
2017-Aug-18 03:00N 59°24' E 019°49'611.4
2017-Aug-18 02:30N 59°29' E 019°55'611.4
2017-Aug-18 02:01N 59°34' E 019°57'611.7
2017-Aug-18 01:31N 59°40' E 019°52'612.1
2017-Aug-18 01:01N 59°44' E 019°44'612.1
2017-Aug-18 00:30N 59°49' E 019°37'611.9
2017-Aug-18 00:00N 59°54' E 019°29'611.6
2017-Aug-17 23:30N 59°58' E 019°22'611.7
2017-Aug-17 23:00N 60°02' E 019°14'611.8
2017-Aug-17 22:30N 60°07' E 019°07'611.6
2017-Aug-17 22:00N 60°12' E 018°60'611.7
2017-Aug-17 21:30N 60°17' E 018°60'613.0
2017-Aug-17 21:00N 60°24' E 018°59'612.0
2017-Aug-17 20:30N 60°30' E 018°56'510.1
2017-Aug-17 20:00N 60°34' E 018°51'611.0
2017-Aug-17 19:30N 60°38' E 018°44'612.4
2017-Aug-17 19:00N 60°43' E 018°36'612.3
2017-Aug-17 18:31N 60°48' E 018°28'611.1
2017-Aug-17 18:00N 60°53' E 018°21'611.3
2017-Aug-17 17:30N 60°57' E 018°14'611.8
2017-Aug-17 17:00N 61°01' E 018°06'510.3
2017-Aug-17 16:30N 61°04' E 017°56'611.4
2017-Aug-17 16:00N 61°06' E 017°46'510.8
2017-Aug-17 15:30N 61°09' E 017°36'711.1
2017-Aug-17 14:55N 61°12' E 017°24'6 0.2
2017-Aug-16 08:20N 61°11' E 017°10'0 0.0
2017-Aug-15 07:06N 61°11' E 017°10'0 0.0
2017-Aug-15 06:15N 61°11' E 017°10'0 0.0
2017-Aug-15 05:54N 61°11' E 017°10'0 0.0
2017-Aug-15 05:30N 61°11' E 017°10'0 0.0
2017-Aug-15 05:00N 61°11' E 017°10'0 0.0
2017-Aug-15 04:30N 61°11' E 017°10'0 0.0
2017-Aug-15 03:00N 61°11' E 017°10'0 0.0
2017-Aug-15 02:30N 61°11' E 017°10'0 0.0
2017-Aug-15 02:00N 61°11' E 017°10'0 0.0
2017-Aug-15 01:29N 61°11' E 017°10'0 0.0
2017-Aug-14 21:13N 61°11' E 017°10'0 0.0
2017-Aug-14 18:24N 61°11' E 017°10'  
2017-Aug-12 09:01N 61°11' E 017°16'0 0.1
2017-Aug-12 08:58N 61°11' E 017°16'0 0.0
2017-Aug-12 08:28N 61°11' E 017°16'0 0.1
2017-Aug-12 07:58N 61°11' E 017°16'0 0.0
2017-Aug-12 07:28N 61°11' E 017°16'0 0.0
2017-Aug-12 02:19N 61°11' E 017°16'0 0.0
2017-Aug-12 01:58N 61°11' E 017°16'0 0.0
2017-Aug-12 01:22N 61°11' E 017°16'0 0.0
2017-Aug-12 00:49N 61°11' E 017°16'0 0.0
2017-Aug-12 00:25N 61°11' E 017°16'0 0.0
2017-Aug-11 23:46N 61°11' E 017°16'0 0.0
2017-Aug-11 23:13N 61°11' E 017°16'0 0.0
2017-Aug-11 10:16N 61°11' E 017°16'0 0.0
2017-Aug-11 09:55N 61°11' E 017°16'0 0.1
2017-Aug-11 09:22N 61°11' E 017°16'0 0.0
2017-Aug-11 08:25N 61°11' E 017°16'0 0.0
2017-Aug-11 07:58N 61°11' E 017°16'0 0.0
2017-Aug-11 07:28N 61°11' E 017°16'0 0.0
2017-Aug-11 06:58N 61°11' E 017°16'0 0.0
2017-Aug-11 06:25N 61°11' E 017°16'0 0.0
2017-Aug-11 05:58N 61°11' E 017°16'0 0.0
2017-Aug-11 05:28N 61°11' E 017°16'0 0.0
2017-Aug-09 18:46N 61°11' E 017°16'0 0.0
2017-Aug-09 18:25N 61°11' E 017°16'0 0.0
2017-Aug-09 17:55N 61°11' E 017°16'0 0.0
2017-Aug-09 16:31N 61°11' E 017°16'0 0.1
2017-Aug-09 16:28N 61°11' E 017°16'0 0.0
2017-Aug-09 14:49N 61°11' E 017°16'0 0.0
2017-Aug-09 14:28N 61°11' E 017°16'0 0.0
2017-Aug-09 13:49N 61°11' E 017°16'0 0.0
2017-Aug-09 11:37N 61°11' E 017°16'0 0.0
2017-Aug-09 11:28N 61°11' E 017°16'0 0.0
2017-Aug-09 10:58N 61°11' E 017°16'0 0.0
2017-Aug-09 10:28N 61°11' E 017°16'0 0.1
2017-Aug-09 09:58N 61°11' E 017°16'0 0.0
2017-Aug-09 09:28N 61°11' E 017°16'0 0.0
2017-Aug-09 08:58N 61°11' E 017°16'0 0.0
2017-Aug-09 08:28N 61°11' E 017°16'0 0.0
2017-Aug-09 07:58N 61°11' E 017°16'0 0.0
2017-Aug-09 07:28N 61°11' E 017°16'  
Track history (hours):
 
Tides and Currents Weather Stations Pressure Air Temp Water Temp Dewpoint Dewpoint Depression Visibility Wind Speed Wind Dir Waves Ship Positions

Hc Svea Kim

Last reported at 2017-Aug-19 07:30 UTC. Time now 2017-Aug-19 07:27 UTC.
Position N 55°14' E 014°17'.

Length 129 m; draft 6.7 m.

Type: Cargo ship. MMSI: 304182000.

Date/timePositionNaut miles runAvg speedWind from/ knotsBaromVisibWave heightAir tempDewpointWater temp
2017-Aug-19 07:30N 55°14' E 014°17'510.0
2017-Aug-19 07:00N 55°18' E 014°23'510.3
2017-Aug-19 06:30N 55°22' E 014°29'510.7
2017-Aug-19 06:00N 55°26' E 014°35'611.1
2017-Aug-19 05:30N 55°29' E 014°44'510.9
2017-Aug-19 05:00N 55°31' E 014°52'510.8
2017-Aug-19 04:30N 55°34' E 015°00'611.0
2017-Aug-19 04:00N 55°37' E 015°09'510.9
2017-Aug-19 03:30N 55°40' E 015°17'510.8
2017-Aug-19 03:00N 55°42' E 015°25'510.7
2017-Aug-19 02:30N 55°45' E 015°34'510.6
2017-Aug-19 02:00N 55°47' E 015°42'510.6
2017-Aug-19 01:30N 55°50' E 015°50'510.5
2017-Aug-19 01:00N 55°53' E 015°58'611.2
2017-Aug-19 00:30N 55°56' E 016°06'611.4
2017-Aug-19 00:00N 55°59' E 016°15'611.5
2017-Aug-18 23:30N 56°02' E 016°24'611.5
2017-Aug-18 23:00N 56°05' E 016°32'611.3
2017-Aug-18 22:30N 56°08' E 016°41'510.9
2017-Aug-18 22:00N 56°13' E 016°46'611.5
2017-Aug-18 21:30N 56°18' E 016°51'611.3
2017-Aug-18 21:00N 56°23' E 016°56'611.5
2017-Aug-18 20:29N 56°28' E 016°60'711.4
2017-Aug-18 19:51N 56°35' E 017°05'511.5
2017-Aug-18 19:25N 56°40' E 017°08'611.4
2017-Aug-18 18:52N 56°46' E 017°11'13811.3
2017-Aug-18 06:40N 58°48' E 019°09'211.3
2017-Aug-18 06:30N 58°50' E 019°10'611.3
2017-Aug-18 06:00N 58°55' E 019°16'611.3
2017-Aug-18 05:30N 58°60' E 019°21'611.3
2017-Aug-18 05:00N 59°05' E 019°27'611.1
2017-Aug-18 04:28N 59°10' E 019°33'511.1
2017-Aug-18 04:00N 59°14' E 019°38'611.2
2017-Aug-18 03:30N 59°19' E 019°43'611.4
2017-Aug-18 03:00N 59°24' E 019°49'611.4
2017-Aug-18 02:30N 59°29' E 019°55'611.4
2017-Aug-18 02:01N 59°34' E 019°57'611.7
2017-Aug-18 01:31N 59°40' E 019°52'612.1
2017-Aug-18 01:01N 59°44' E 019°44'612.1
2017-Aug-18 00:30N 59°49' E 019°37'611.9
2017-Aug-18 00:00N 59°54' E 019°29'611.6
2017-Aug-17 23:30N 59°58' E 019°22'611.7
2017-Aug-17 23:00N 60°02' E 019°14'611.8
2017-Aug-17 22:30N 60°07' E 019°07'611.6
2017-Aug-17 22:00N 60°12' E 018°60'611.7
2017-Aug-17 21:30N 60°17' E 018°60'613.0
2017-Aug-17 21:00N 60°24' E 018°59'612.0
2017-Aug-17 20:30N 60°30' E 018°56'510.1
2017-Aug-17 20:00N 60°34' E 018°51'611.0
2017-Aug-17 19:30N 60°38' E 018°44'612.4
2017-Aug-17 19:00N 60°43' E 018°36'612.3
2017-Aug-17 18:31N 60°48' E 018°28'611.1
2017-Aug-17 18:00N 60°53' E 018°21'611.3
2017-Aug-17 17:30N 60°57' E 018°14'611.8
2017-Aug-17 17:00N 61°01' E 018°06'510.3
2017-Aug-17 16:30N 61°04' E 017°56'611.4
2017-Aug-17 16:00N 61°06' E 017°46'510.8
2017-Aug-17 15:30N 61°09' E 017°36'711.1
2017-Aug-17 14:55N 61°12' E 017°24'6 0.2
2017-Aug-16 08:20N 61°11' E 017°10'0 0.0
2017-Aug-15 07:06N 61°11' E 017°10'0 0.0
2017-Aug-15 06:15N 61°11' E 017°10'0 0.0
2017-Aug-15 05:54N 61°11' E 017°10'0 0.0
2017-Aug-15 05:30N 61°11' E 017°10'0 0.0
2017-Aug-15 05:00N 61°11' E 017°10'0 0.0
2017-Aug-15 04:30N 61°11' E 017°10'0 0.0
2017-Aug-15 03:00N 61°11' E 017°10'0 0.0
2017-Aug-15 02:30N 61°11' E 017°10'0 0.0
2017-Aug-15 02:00N 61°11' E 017°10'0 0.0
2017-Aug-15 01:29N 61°11' E 017°10'0 0.0
2017-Aug-14 21:13N 61°11' E 017°10'0 0.0
2017-Aug-14 18:24N 61°11' E 017°10'  
2017-Aug-12 09:01N 61°11' E 017°16'0 0.1
2017-Aug-12 08:58N 61°11' E 017°16'0 0.0
2017-Aug-12 08:28N 61°11' E 017°16'0 0.1
2017-Aug-12 07:58N 61°11' E 017°16'0 0.0
2017-Aug-12 07:28N 61°11' E 017°16'0 0.0
2017-Aug-12 02:19N 61°11' E 017°16'0 0.0
2017-Aug-12 01:58N 61°11' E 017°16'0 0.0
2017-Aug-12 01:22N 61°11' E 017°16'0 0.0
2017-Aug-12 00:49N 61°11' E 017°16'0 0.0
2017-Aug-12 00:25N 61°11' E 017°16'0 0.0
2017-Aug-11 23:46N 61°11' E 017°16'0 0.0
2017-Aug-11 23:13N 61°11' E 017°16'0 0.0
2017-Aug-11 10:16N 61°11' E 017°16'0 0.0
2017-Aug-11 09:55N 61°11' E 017°16'0 0.1
2017-Aug-11 09:22N 61°11' E 017°16'0 0.0
2017-Aug-11 08:25N 61°11' E 017°16'0 0.0
2017-Aug-11 07:58N 61°11' E 017°16'0 0.0
2017-Aug-11 07:28N 61°11' E 017°16'0 0.0
2017-Aug-11 06:58N 61°11' E 017°16'0 0.0
2017-Aug-11 06:25N 61°11' E 017°16'0 0.0
2017-Aug-11 05:58N 61°11' E 017°16'0 0.0
2017-Aug-11 05:28N 61°11' E 017°16'0 0.0
2017-Aug-09 18:46N 61°11' E 017°16'0 0.0
2017-Aug-09 18:25N 61°11' E 017°16'0 0.0
2017-Aug-09 17:55N 61°11' E 017°16'0 0.0
2017-Aug-09 16:31N 61°11' E 017°16'0 0.1
2017-Aug-09 16:28N 61°11' E 017°16'0 0.0
2017-Aug-09 14:49N 61°11' E 017°16'0 0.0
2017-Aug-09 14:28N 61°11' E 017°16'0 0.0
2017-Aug-09 13:49N 61°11' E 017°16'0 0.0
2017-Aug-09 11:37N 61°11' E 017°16'0 0.0
2017-Aug-09 11:28N 61°11' E 017°16'0 0.0
2017-Aug-09 10:58N 61°11' E 017°16'0 0.0
2017-Aug-09 10:28N 61°11' E 017°16'0 0.1
2017-Aug-09 09:58N 61°11' E 017°16'0 0.0
2017-Aug-09 09:28N 61°11' E 017°16'0 0.0
2017-Aug-09 08:58N 61°11' E 017°16'0 0.0
2017-Aug-09 08:28N 61°11' E 017°16'0 0.0
2017-Aug-09 07:58N 61°11' E 017°16'0 0.0
2017-Aug-09 07:28N 61°11' E 017°16'  

Dump ship's entire track history